This is the latest recevied weather packets stored in our database for station/object OE-11349. If no packets are shown the sender has not sent any weather packets the latest 10 day(s).
| Time | Temp. | Humidity | Pressure | Rain* | Wind** | Luminosity | Snow |
|---|---|---|---|---|---|---|---|
| 1787668882 | 13.89° C | 83% | 849.8 hPa | - | - | 234 W/m² | - |
| 1787668508 | 13.89° C | 83% | 850 hPa | - | - | 310 W/m² | - |
| 1787667908 | 13.89° C | 84% | 849.9 hPa | - | - | 296 W/m² | - |
| 1787667082 | 13.89° C | 86% | 849.7 hPa | - | - | 220 W/m² | - |
| 1787666709 | 13.33° C | 85% | 849.7 hPa | - | - | 151 W/m² | - |
| 1787666109 | 13.33° C | 84% | 849.5 hPa | - | - | 200 W/m² | - |
| 1787665282 | 13.89° C | 82% | 849.5 hPa | - | - | 234 W/m² | - |
| 1787664909 | 13.89° C | 82% | 849.4 hPa | - | - | 344 W/m² | - |
| 1787664309 | 13.89° C | 82% | 849.3 hPa | - | - | 323 W/m² | - |
| 1787663482 | 13.89° C | 82% | 849.3 hPa | - | - | 447 W/m² | - |
| 1787663109 | 13.89° C | 82% | 849.3 hPa | - | - | 420 W/m² | - |
| 1787662509 | 13.89° C | 82% | 849.4 hPa | - | - | 282 W/m² | - |
| 1787661682 | 13.89° C | 85% | 849.4 hPa | - | - | 303 W/m² | - |
| 1787661309 | 13.89° C | 85% | 849.3 hPa | - | - | 351 W/m² | - |
| 1787660709 | 13.33° C | 83% | 849.4 hPa | - | - | 337 W/m² | - |
| 1787660121 | 13.33° C | 84% | 849.4 hPa | - | - | 358 W/m² | - |
| 1787659509 | 13.89° C | 86% | 849.4 hPa | - | - | 268 W/m² | - |
| 1787658909 | 13.33° C | 85% | 849.4 hPa | - | - | 344 W/m² | - |
| 1787658082 | 13.89° C | 83% | 849.4 hPa | - | - | 461 W/m² | - |
| 1787657708 | 14.44° C | 83% | 849.2 hPa | - | - | 860 W/m² | - |
| 1787657108 | 13.89° C | 86% | 849.2 hPa | - | - | 654 W/m² | - |
| 1787654482 | 12.78° C | 87% | 849.4 hPa | - | - | 413 W/m² | - |
| 1787651708 | 12.78° C | 93% | 849.4 hPa | - | - | 303 W/m² | - |
| 1787650882 | 12.22° C | 93% | 849.4 hPa | - | - | 248 W/m² | - |
| 1787650509 | 12.78° C | 93% | 849.5 hPa | - | - | 303 W/m² | - |
* Rain since midnight (hover to see other rain measurements)
** Current wind speed in m/s (hover to see current wind gust speed)